Senyomaru — JI3557 — position and weather

sailwx.info

Track history (hours):
 
Tides and Currents Weather Stations Pressure Air Temp Water Temp Dewpoint Dewpoint Depression Visibility Wind Speed Wind Dir Waves Ship Positions

Senyomaru

Last reported at 2016-Aug-29 09:04 UTC. Time now 2016-Aug-31 04:20 UTC.
Position N 34°35' E 134°51'.

Length 69 m; draft 4 m.

Type: Tanker. MMSI: 431300188.

Date/timePositionNaut miles runAvg speedWind from/ knotsBaromVisibWave heightAir tempDewpointWater temp
2016-Aug-29 09:04N 34°35' E 134°51'815.3
2016-Aug-29 08:33N 34°38' E 135°00'1313.2
2016-Aug-29 07:33N 34°35' E 135°15'8 1.1
2016-Aug-29 00:12N 34°33' E 135°25'2 0.2
2016-Aug-28 11:12N 34°34' E 135°23'0 0.1
2016-Aug-28 10:24N 34°34' E 135°23'0 0.0
2016-Aug-28 09:30N 34°34' E 135°23'1 1.1
2016-Aug-28 08:33N 34°34' E 135°22'1211.9
2016-Aug-28 07:33N 34°35' E 135°08'  
2016-Aug-24 07:32N 34°36' E 134°53'1110.9
2016-Aug-24 06:33N 34°36' E 135°06'16 2.0
2016-Aug-23 22:20N 34°33' E 135°26'3 3.8
2016-Aug-23 21:33N 34°33' E 135°22'6 6.3
2016-Aug-23 20:33N 34°35' E 135°15'1110.9
2016-Aug-23 19:33N 34°37' E 135°02'7 0.2
2016-Aug-22 08:25N 34°35' E 134°54'7 8.5
2016-Aug-22 07:33N 34°37' E 135°02'1010.3
2016-Aug-22 06:33N 34°35' E 135°15'9 1.5
2016-Aug-22 00:33N 34°33' E 135°25'2 2.3
2016-Aug-21 23:30N 34°34' E 135°23'0 0.0
2016-Aug-21 22:24N 34°34' E 135°23'0 0.0
2016-Aug-21 21:30N 34°34' E 135°23'0 0.0
2016-Aug-21 07:30N 34°34' E 135°23'0 0.0
2016-Aug-21 01:30N 34°34' E 135°23'0 0.0
2016-Aug-21 00:18N 34°34' E 135°23'0 0.0
2016-Aug-20 23:18N 34°34' E 135°23'0 0.0
2016-Aug-20 21:30N 34°34' E 135°23'0 0.0
2016-Aug-20 10:24N 34°34' E 135°23'0 0.1
2016-Aug-20 09:30N 34°34' E 135°23'0 0.0
2016-Aug-20 06:18N 34°34' E 135°23'0 0.0
2016-Aug-20 05:30N 34°34' E 135°23'0 0.0
2016-Aug-20 04:06N 34°34' E 135°23'0 0.0
2016-Aug-20 03:30N 34°34' E 135°23'0 0.0
2016-Aug-20 02:24N 34°34' E 135°23'0 0.1
2016-Aug-20 01:30N 34°34' E 135°23'0 0.0
2016-Aug-19 23:09N 34°34' E 135°23'0 0.0
2016-Aug-19 22:33N 34°34' E 135°23'0 0.1
2016-Aug-19 21:33N 34°34' E 135°23'5 4.9
2016-Aug-19 20:33N 34°34' E 135°17'1413.6
2016-Aug-19 19:33N 34°37' E 135°01'  
Track history (hours):
 
Tides and Currents Weather Stations Pressure Air Temp Water Temp Dewpoint Dewpoint Depression Visibility Wind Speed Wind Dir Waves Ship Positions

Senyomaru

Last reported at 2016-Aug-29 09:04 UTC. Time now 2016-Aug-31 04:20 UTC.
Position N 34°35' E 134°51'.

Length 69 m; draft 4 m.

Type: Tanker. MMSI: 431300188.

Date/timePositionNaut miles runAvg speedWind from/ knotsBaromVisibWave heightAir tempDewpointWater temp
2016-Aug-29 09:04N 34°35' E 134°51'815.3
2016-Aug-29 08:33N 34°38' E 135°00'1313.2
2016-Aug-29 07:33N 34°35' E 135°15'8 1.1
2016-Aug-29 00:12N 34°33' E 135°25'2 0.2
2016-Aug-28 11:12N 34°34' E 135°23'0 0.1
2016-Aug-28 10:24N 34°34' E 135°23'0 0.0
2016-Aug-28 09:30N 34°34' E 135°23'1 1.1
2016-Aug-28 08:33N 34°34' E 135°22'1211.9
2016-Aug-28 07:33N 34°35' E 135°08'  
2016-Aug-24 07:32N 34°36' E 134°53'1110.9
2016-Aug-24 06:33N 34°36' E 135°06'16 2.0
2016-Aug-23 22:20N 34°33' E 135°26'3 3.8
2016-Aug-23 21:33N 34°33' E 135°22'6 6.3
2016-Aug-23 20:33N 34°35' E 135°15'1110.9
2016-Aug-23 19:33N 34°37' E 135°02'7 0.2
2016-Aug-22 08:25N 34°35' E 134°54'7 8.5
2016-Aug-22 07:33N 34°37' E 135°02'1010.3
2016-Aug-22 06:33N 34°35' E 135°15'9 1.5
2016-Aug-22 00:33N 34°33' E 135°25'2 2.3
2016-Aug-21 23:30N 34°34' E 135°23'0 0.0
2016-Aug-21 22:24N 34°34' E 135°23'0 0.0
2016-Aug-21 21:30N 34°34' E 135°23'0 0.0
2016-Aug-21 07:30N 34°34' E 135°23'0 0.0
2016-Aug-21 01:30N 34°34' E 135°23'0 0.0
2016-Aug-21 00:18N 34°34' E 135°23'0 0.0
2016-Aug-20 23:18N 34°34' E 135°23'0 0.0
2016-Aug-20 21:30N 34°34' E 135°23'0 0.0
2016-Aug-20 10:24N 34°34' E 135°23'0 0.1
2016-Aug-20 09:30N 34°34' E 135°23'0 0.0
2016-Aug-20 06:18N 34°34' E 135°23'0 0.0
2016-Aug-20 05:30N 34°34' E 135°23'0 0.0
2016-Aug-20 04:06N 34°34' E 135°23'0 0.0
2016-Aug-20 03:30N 34°34' E 135°23'0 0.0
2016-Aug-20 02:24N 34°34' E 135°23'0 0.1
2016-Aug-20 01:30N 34°34' E 135°23'0 0.0
2016-Aug-19 23:09N 34°34' E 135°23'0 0.0
2016-Aug-19 22:33N 34°34' E 135°23'0 0.1
2016-Aug-19 21:33N 34°34' E 135°23'5 4.9
2016-Aug-19 20:33N 34°34' E 135°17'1413.6
2016-Aug-19 19:33N 34°37' E 135°01'  

Dump ship's entire track history